Flight Track Log - Related Links

Times and Time Zones

All times are in EDT time to prevent confusion due to time zone crossing. See the N50545 flight status page for this flight to view local times or setup timezone preferences in your user account.

Time Position Orientation Groundspeed Altitude Reporting Facility
EDT Latitude Longitude Course Direction KTS MPH feet Rate Location/Type
Sun 05:26:08 PM 32.2578 -82.4603 312° West 105 121 4,000  Level Jacksonville Center
Sun 05:27:08 PM 32.2828 -82.4872 318° Northwest 105 121 4,100 50 Climbing Jacksonville Center
Sun 05:28:00 PM 32.2630 -82.4630 320° Northwest  Level FlightAware Approximate
Sun 05:28:08 PM 32.3058 -82.5142 315° West 110 127 4,100  Level Jacksonville Center
Sun 05:29:00 PM 32.2846 -82.4850 312° West  Level FlightAware Approximate
Sun 05:29:08 PM 32.3311 -82.5433 316° Northwest 116 133 4,000  Level Jacksonville Center
Sun 05:30:08 PM 32.3519 -82.5706 312° West 116 133 4,100 31 Climbing Jacksonville Center
Sun 05:32:20 PM 32.4000 -82.6333 312° West 112 129 4,100  Level Atlanta TRACON
Sun 05:33:14 PM 32.4167 -82.6500 320° Northwest 118 136 4,100  Level Atlanta TRACON
Sun 05:34:14 PM 32.4500 -82.6833 320° Northwest 115 132 4,100 -50 Level Atlanta TRACON
Sun 05:35:14 PM 32.4667 -82.7000 320° Northwest 114 131 4,000 -53 Descending Atlanta TRACON
Sun 05:36:08 PM 32.4833 -82.7333 301° West 118 136 4,000 50 Level Atlanta TRACON
Sun 05:37:14 PM 32.5167 -82.7667 320° Northwest 112 129 4,100  Climbing Atlanta TRACON
Sun 05:38:08 PM 32.5333 -82.7833 320° Northwest 112 129 4,000  Descending Atlanta TRACON
Sun 05:39:08 PM 32.5500 -82.8167 301° West 114 131 4,100  Climbing Atlanta TRACON
Sun 05:40:08 PM 32.5667 -82.8500 301° West 119 137 4,000  Descending Atlanta TRACON
Sun 05:41:08 PM 32.5667 -82.8833 270° West 120 138 4,100 350 Climbing Atlanta TRACON
Sun 05:42:08 PM 32.5833 -82.9167 301° West 109 125 4,700 450 Climbing Atlanta TRACON
Sun 05:43:08 PM 32.5833 -82.9500 270° West 109 125 5,000 150 Climbing Atlanta TRACON
Sun 05:44:08 PM 32.5833 -83.0000 270° West 123 142 5,000  Level Atlanta TRACON
Sun 05:45:08 PM 32.6000 -83.0333 301° West 123 142 5,000 100 Level Atlanta TRACON
Sun 05:46:08 PM 32.6000 -83.0667 270° West 117 135 5,200 350 Climbing Atlanta TRACON
Sun 05:47:08 PM 32.6000 -83.1167 270° West 118 136 5,700 400 Climbing Atlanta TRACON
Sun 05:48:08 PM 32.6167 -83.1500 301° West 121 139 6,000 400 Climbing Atlanta TRACON
Sun 05:49:08 PM 32.6167 -83.1833 270° West 116 133 6,500 579 Climbing Atlanta TRACON
Sun 05:50:02 PM 32.6333 -83.2167 301° West 110 127 7,100 400 Climbing Atlanta TRACON
Sun 05:51:08 PM 32.6333 -83.2667 270° West 112 129 7,300 286 Climbing Atlanta TRACON
Sun 05:52:08 PM 32.6333 -83.3000 270° West 111 128 7,700 300 Climbing Atlanta TRACON
Sun 05:53:08 PM 32.6500 -83.3333 301° West 112 129 7,900 150 Climbing Atlanta TRACON
Sun 05:54:08 PM 32.6500 -83.3667 270° West 117 135 8,000 50 Climbing Atlanta TRACON
Sun 05:55:08 PM 32.6500 -83.4000 270° West 121 139 8,000  Level Atlanta TRACON
Sun 05:56:08 PM 32.6667 -83.4500 292° West 119 137 8,000  Level Atlanta TRACON
Sun 05:57:08 PM 32.6667 -83.4833 270° West 111 128 8,000  Level Atlanta TRACON
Sun 05:58:02 PM 32.6667 -83.5167 270° West 116 133 8,000  Level Atlanta TRACON
Sun 05:59:08 PM 32.6833 -83.5500 301° West 116 133 8,000  Level Atlanta TRACON
Sun 06:00:02 PM 32.6833 -83.6000 270° West 112 129 8,000  Level Atlanta TRACON
Sun 06:01:03 PM 32.6833 -83.6333 270° West 101 116 8,000  Level Atlanta TRACON
Sun 06:02:08 PM 32.6833 -83.6500 270° West 91 105 8,000  Level Atlanta TRACON
Sun 06:03:02 PM 32.6833 -83.7167 270° West 104 120 8,000  Level Atlanta TRACON
Sun 06:04:08 PM 32.6833 -83.7500 270° West 113 130 8,000  Level Atlanta TRACON
Sun 06:05:08 PM 32.6833 -83.7833 270° West 116 133 8,000  Level Atlanta TRACON
Sun 06:06:08 PM 32.6833 -83.8333 270° West 116 133 8,000  Level Atlanta TRACON
Sun 06:07:08 PM 32.6833 -83.8667 270° West 116 133 8,000  Level Atlanta TRACON
Sun 06:08:08 PM 32.6667 -83.9167 248° West 119 137 8,000  Level Atlanta TRACON
Sun 06:09:09 PM 32.6667 -83.9500 270° West 119 137 8,000  Level Atlanta TRACON
Sun 06:10:08 PM 32.6667 -83.9833 270° West 119 137 8,000  Level Atlanta TRACON
Sun 06:11:08 PM 32.6667 -84.0333 270° West 122 140 8,000  Level Atlanta TRACON
Sun 06:12:03 PM 32.6667 -84.0667 270° West 120 138 8,000  Level Atlanta TRACON
Sun 06:13:03 PM 32.6667 -84.1000 270° West 121 139 8,000  Level Atlanta TRACON
Sun 06:14:03 PM 32.6500 -84.1333 239° Southwest 118 136 8,000  Level Atlanta TRACON
Sun 06:15:03 PM 32.6500 -84.1833 270° West 121 139 8,000  Level Atlanta TRACON
Sun 06:16:08 PM 32.6500 -84.2167 270° West 125 144 8,000  Level Atlanta TRACON
Sun 06:17:09 PM 32.6500 -84.2667 270° West 122 140 8,000  Level Atlanta TRACON
Sun 06:18:14 PM 32.6500 -84.3000 270° West 121 139 8,000  Level Atlanta TRACON
Sun 06:19:14 PM 32.6500 -84.3500 270° West 124 143 8,000  Level Atlanta TRACON
Sun 06:20:14 PM 32.6333 -84.3833 239° Southwest 121 139 8,000  Level Atlanta TRACON
Sun 06:21:09 PM 32.6333 -84.4167 270° West 123 142 8,000  Level Atlanta TRACON
Sun 06:22:09 PM 32.6333 -84.4667 270° West 122 140 8,000  Level Atlanta TRACON
Sun 06:23:03 PM 32.6333 -84.5000 270° West 120 138 8,000  Level Atlanta TRACON
Sun 06:24:09 PM 32.6333 -84.5500 270° West 119 137 8,000  Level Atlanta TRACON
Sun 06:25:09 PM 32.6333 -84.5833 270° West 119 137 8,000  Level Atlanta TRACON
Sun 06:26:09 PM 32.6333 -84.6167 270° West 117 135 8,000  Level Atlanta TRACON
Sun 06:27:03 PM 32.6333 -84.6500 270° West 116 133 8,000  Level Atlanta TRACON
Sun 06:28:09 PM 32.6333 -84.7000 270° West 115 132 8,000  Level Atlanta TRACON
Sun 06:29:09 PM 32.6333 -84.7333 270° West 115 132 8,000  Level Atlanta TRACON
Sun 06:30:09 PM 32.6333 -84.7667 270° West 117 135 8,000  Level Atlanta TRACON
Sun 06:31:15 PM 32.6167 -84.8167 248° West 118 136 8,000  Level Atlanta TRACON
Sun 06:32:15 PM 32.6167 -84.8500 270° West 118 136 8,000 -105 Level Atlanta TRACON
Sun 06:33:09 PM 32.6167 -84.8833 270° West 117 135 7,800 -368 Descending Atlanta TRACON
Sun 06:34:09 PM 32.6167 -84.9333 270° West 119 137 7,300 -450 Descending Atlanta TRACON
Sun 06:35:09 PM 32.6167 -84.9667 270° West 119 137 6,900 -429 Descending Atlanta TRACON
Sun 06:36:15 PM 32.6167 -85.0167 270° West 122 140 6,400 -429 Descending Atlanta TRACON
Sun 06:37:15 PM 32.6167 -85.0500 270° West 126 145 6,000 -400 Descending Atlanta TRACON
Sun 06:38:15 PM 32.6167 -85.1000 270° West 125 144 5,600 -400 Descending Atlanta TRACON

Login

Don't have an account? Register now (free) for customized features, flight alerts, and more!